sensor_id;sensor_type;location;lat;lon;timestamp;P1;durP1;ratioP1;P2;durP2;ratioP2
3708;SDS011;1870;53.996;10.784;2023-04-25T00:01:39;10.50;;;4.83;;
3708;SDS011;1870;53.996;10.784;2023-04-25T00:04:05;15.50;;;5.87;;
3708;SDS011;1870;53.996;10.784;2023-04-25T00:06:31;8.40;;;3.70;;
3708;SDS011;1870;53.996;10.784;2023-04-25T00:08:58;7.50;;;3.53;;
3708;SDS011;1870;53.996;10.784;2023-04-25T00:11:24;7.40;;;3.60;;
3708;SDS011;1870;53.996;10.784;2023-04-25T00:13:50;10.80;;;4.10;;
3708;SDS011;1870;53.996;10.784;2023-04-25T00:16:16;12.13;;;4.77;;
3708;SDS011;1870;53.996;10.784;2023-04-25T00:18:42;10.40;;;3.83;;
3708;SDS011;1870;53.996;10.784;2023-04-25T00:21:08;9.60;;;3.27;;
3708;SDS011;1870;53.996;10.784;2023-04-25T00:23:34;10.07;;;3.80;;
3708;SDS011;1870;53.996;10.784;2023-04-25T00:26:01;8.97;;;3.47;;
3708;SDS011;1870;53.996;10.784;2023-04-25T00:28:27;15.67;;;3.90;;
3708;SDS011;1870;53.996;10.784;2023-04-25T00:30:54;16.53;;;3.43;;
3708;SDS011;1870;53.996;10.784;2023-04-25T00:33:20;7.13;;;3.80;;
3708;SDS011;1870;53.996;10.784;2023-04-25T00:35:46;11.40;;;2.73;;
3708;SDS011;1870;53.996;10.784;2023-04-25T00:38:12;5.00;;;2.97;;
3708;SDS011;1870;53.996;10.784;2023-04-25T00:40:38;10.30;;;2.80;;
3708;SDS011;1870;53.996;10.784;2023-04-25T00:43:04;5.70;;;2.60;;
3708;SDS011;1870;53.996;10.784;2023-04-25T00:45:30;9.97;;;3.10;;
3708;SDS011;1870;53.996;10.784;2023-04-25T00:47:56;4.70;;;3.30;;
3708;SDS011;1870;53.996;10.784;2023-04-25T00:50:23;6.50;;;3.07;;
3708;SDS011;1870;53.996;10.784;2023-04-25T00:52:49;9.23;;;3.40;;
3708;SDS011;1870;53.996;10.784;2023-04-25T00:55:16;11.33;;;3.40;;
3708;SDS011;1870;53.996;10.784;2023-04-25T00:57:42;14.30;;;3.03;;
3708;SDS011;1870;53.996;10.784;2023-04-25T01:00:09;14.73;;;2.60;;
3708;SDS011;1870;53.996;10.784;2023-04-25T01:02:36;10.83;;;2.90;;
3708;SDS011;1870;53.996;10.784;2023-04-25T01:05:02;12.27;;;3.00;;
3708;SDS011;1870;53.996;10.784;2023-04-25T01:07:29;11.33;;;3.23;;
3708;SDS011;1870;53.996;10.784;2023-04-25T01:09:55;9.30;;;2.80;;
3708;SDS011;1870;53.996;10.784;2023-04-25T01:12:21;10.13;;;3.00;;
3708;SDS011;1870;53.996;10.784;2023-04-25T01:14:47;9.77;;;3.73;;
3708;SDS011;1870;53.996;10.784;2023-04-25T01:17:13;16.50;;;4.93;;
3708;SDS011;1870;53.996;10.784;2023-04-25T01:19:40;13.70;;;3.13;;
3708;SDS011;1870;53.996;10.784;2023-04-25T01:22:09;15.73;;;2.90;;
3708;SDS011;1870;53.996;10.784;2023-04-25T01:24:35;9.60;;;3.40;;
3708;SDS011;1870;53.996;10.784;2023-04-25T01:27:02;11.70;;;3.63;;
3708;SDS011;1870;53.996;10.784;2023-04-25T01:32:32;12.57;;;3.73;;
3708;SDS011;1870;53.996;10.784;2023-04-25T01:35:09;13.27;;;3.00;;
3708;SDS011;1870;53.996;10.784;2023-04-25T01:37:39;12.50;;;3.00;;
3708;SDS011;1870;53.996;10.784;2023-04-25T01:40:05;18.50;;;4.37;;
3708;SDS011;1870;53.996;10.784;2023-04-25T01:42:32;11.93;;;3.97;;
3708;SDS011;1870;53.996;10.784;2023-04-25T01:44:58;13.03;;;3.27;;
3708;SDS011;1870;53.996;10.784;2023-04-25T01:47:24;9.17;;;2.80;;
3708;SDS011;1870;53.996;10.784;2023-04-25T01:49:50;11.67;;;4.23;;
3708;SDS011;1870;53.996;10.784;2023-04-25T01:52:16;19.90;;;3.60;;
3708;SDS011;1870;53.996;10.784;2023-04-25T01:54:42;12.30;;;3.17;;
3708;SDS011;1870;53.996;10.784;2023-04-25T01:57:12;19.40;;;3.73;;
3708;SDS011;1870;53.996;10.784;2023-04-25T01:59:38;15.93;;;2.83;;
3708;SDS011;1870;53.996;10.784;2023-04-25T02:02:05;10.63;;;3.20;;
3708;SDS011;1870;53.996;10.784;2023-04-25T02:04:32;9.73;;;3.20;;
3708;SDS011;1870;53.996;10.784;2023-04-25T02:06:58;12.33;;;3.13;;
3708;SDS011;1870;53.996;10.784;2023-04-25T02:09:24;18.30;;;3.80;;
3708;SDS011;1870;53.996;10.784;2023-04-25T02:12:24;18.73;;;4.00;;
3708;SDS011;1870;53.996;10.784;2023-04-25T02:14:51;15.23;;;3.83;;
3708;SDS011;1870;53.996;10.784;2023-04-25T02:17:17;12.13;;;3.43;;
3708;SDS011;1870;53.996;10.784;2023-04-25T02:19:43;23.27;;;4.33;;
3708;SDS011;1870;53.996;10.784;2023-04-25T02:22:10;20.03;;;4.23;;
3708;SDS011;1870;53.996;10.784;2023-04-25T02:24:36;14.23;;;3.30;;
3708;SDS011;1870;53.996;10.784;2023-04-25T02:27:02;13.80;;;3.90;;
3708;SDS011;1870;53.996;10.784;2023-04-25T02:29:28;10.27;;;3.53;;
3708;SDS011;1870;53.996;10.784;2023-04-25T02:31:54;8.90;;;3.50;;
3708;SDS011;1870;53.996;10.784;2023-04-25T02:34:23;9.90;;;3.77;;
3708;SDS011;1870;53.996;10.784;2023-04-25T02:36:50;9.70;;;3.20;;
3708;SDS011;1870;53.996;10.784;2023-04-25T02:39:25;19.93;;;4.23;;
3708;SDS011;1870;53.996;10.784;2023-04-25T02:41:52;10.70;;;2.80;;
3708;SDS011;1870;53.996;10.784;2023-04-25T02:44:18;17.03;;;3.63;;
3708;SDS011;1870;53.996;10.784;2023-04-25T02:46:45;19.13;;;3.97;;
3708;SDS011;1870;53.996;10.784;2023-04-25T02:49:10;11.57;;;3.60;;
3708;SDS011;1870;53.996;10.784;2023-04-25T02:51:36;13.53;;;4.30;;
3708;SDS011;1870;53.996;10.784;2023-04-25T02:54:02;12.87;;;3.83;;
3708;SDS011;1870;53.996;10.784;2023-04-25T02:56:28;25.73;;;5.07;;
3708;SDS011;1870;53.996;10.784;2023-04-25T02:58:54;8.70;;;3.73;;
3708;SDS011;1870;53.996;10.784;2023-04-25T03:01:20;15.63;;;3.67;;
3708;SDS011;1870;53.996;10.784;2023-04-25T03:03:46;13.33;;;3.80;;
3708;SDS011;1870;53.996;10.784;2023-04-25T03:06:13;9.73;;;4.00;;
3708;SDS011;1870;53.996;10.784;2023-04-25T03:08:39;8.83;;;3.47;;
3708;SDS011;1870;53.996;10.784;2023-04-25T03:11:05;13.90;;;3.43;;
3708;SDS011;1870;53.996;10.784;2023-04-25T03:13:38;10.27;;;4.40;;
3708;SDS011;1870;53.996;10.784;2023-04-25T03:26:21;12.53;;;3.50;;
3708;SDS011;1870;53.996;10.784;2023-04-25T03:32:29;16.60;;;3.70;;
3708;SDS011;1870;53.996;10.784;2023-04-25T03:48:09;15.93;;;3.50;;
3708;SDS011;1870;53.996;10.784;2023-04-25T03:50:35;16.23;;;3.83;;
3708;SDS011;1870;53.996;10.784;2023-04-25T03:53:01;9.40;;;4.30;;
3708;SDS011;1870;53.996;10.784;2023-04-25T03:55:27;15.23;;;5.67;;
3708;SDS011;1870;53.996;10.784;2023-04-25T03:57:53;20.40;;;6.50;;
3708;SDS011;1870;53.996;10.784;2023-04-25T04:00:19;22.17;;;4.10;;
3708;SDS011;1870;53.996;10.784;2023-04-25T04:02:45;17.80;;;3.90;;
3708;SDS011;1870;53.996;10.784;2023-04-25T04:05:11;14.73;;;4.37;;
3708;SDS011;1870;53.996;10.784;2023-04-25T04:07:37;12.27;;;3.83;;
3708;SDS011;1870;53.996;10.784;2023-04-25T04:10:11;15.05;;;4.25;;
3708;SDS011;1870;53.996;10.784;2023-04-25T04:12:37;20.63;;;4.07;;
3708;SDS011;1870;53.996;10.784;2023-04-25T04:15:04;9.13;;;3.77;;
3708;SDS011;1870;53.996;10.784;2023-04-25T04:17:31;15.25;;;4.18;;
3708;SDS011;1870;53.996;10.784;2023-04-25T04:19:57;27.73;;;5.40;;
3708;SDS011;1870;53.996;10.784;2023-04-25T04:22:23;18.05;;;4.22;;
3708;SDS011;1870;53.996;10.784;2023-04-25T04:24:50;17.63;;;4.80;;
3708;SDS011;1870;53.996;10.784;2023-04-25T04:27:19;8.63;;;3.80;;
3708;SDS011;1870;53.996;10.784;2023-04-25T04:29:46;16.13;;;4.10;;
3708;SDS011;1870;53.996;10.784;2023-04-25T04:32:13;18.60;;;4.37;;
3708;SDS011;1870;53.996;10.784;2023-04-25T04:34:39;13.43;;;4.35;;
3708;SDS011;1870;53.996;10.784;2023-04-25T04:37:09;21.97;;;3.83;;
3708;SDS011;1870;53.996;10.784;2023-04-25T04:39:37;18.07;;;4.13;;
3708;SDS011;1870;53.996;10.784;2023-04-25T04:42:03;20.43;;;4.47;;
3708;SDS011;1870;53.996;10.784;2023-04-25T04:44:30;18.63;;;3.53;;
3708;SDS011;1870;53.996;10.784;2023-04-25T04:47:00;13.70;;;4.23;;
3708;SDS011;1870;53.996;10.784;2023-04-25T04:49:26;7.60;;;4.13;;
3708;SDS011;1870;53.996;10.784;2023-04-25T04:51:53;26.93;;;5.90;;
3708;SDS011;1870;53.996;10.784;2023-04-25T04:54:19;19.03;;;3.90;;
3708;SDS011;1870;53.996;10.784;2023-04-25T04:56:45;15.47;;;3.70;;
3708;SDS011;1870;53.996;10.784;2023-04-25T04:59:11;17.17;;;3.87;;
3708;SDS011;1870;53.996;10.784;2023-04-25T05:01:38;22.80;;;3.83;;
3708;SDS011;1870;53.996;10.784;2023-04-25T05:04:04;16.80;;;4.30;;
3708;SDS011;1870;53.996;10.784;2023-04-25T05:06:31;12.83;;;3.53;;
3708;SDS011;1870;53.996;10.784;2023-04-25T05:08:57;13.60;;;3.77;;
3708;SDS011;1870;53.996;10.784;2023-04-25T05:11:23;15.13;;;5.23;;
3708;SDS011;1870;53.996;10.784;2023-04-25T05:13:52;12.10;;;3.40;;
3708;SDS011;1870;53.996;10.784;2023-04-25T05:16:19;11.53;;;4.10;;
3708;SDS011;1870;53.996;10.784;2023-04-25T05:18:45;15.00;;;3.40;;
3708;SDS011;1870;53.996;10.784;2023-04-25T05:21:11;12.37;;;3.73;;
3708;SDS011;1870;53.996;10.784;2023-04-25T05:23:38;15.37;;;5.17;;
3708;SDS011;1870;53.996;10.784;2023-04-25T05:26:04;18.47;;;4.50;;
3708;SDS011;1870;53.996;10.784;2023-04-25T05:28:30;17.33;;;4.50;;
3708;SDS011;1870;53.996;10.784;2023-04-25T05:30:56;15.77;;;4.30;;
3708;SDS011;1870;53.996;10.784;2023-04-25T05:33:22;13.73;;;4.20;;
3708;SDS011;1870;53.996;10.784;2023-04-25T05:35:48;13.77;;;4.10;;
3708;SDS011;1870;53.996;10.784;2023-04-25T05:38:15;13.43;;;3.73;;
3708;SDS011;1870;53.996;10.784;2023-04-25T05:40:41;15.63;;;4.97;;
3708;SDS011;1870;53.996;10.784;2023-04-25T05:43:07;16.20;;;4.57;;
3708;SDS011;1870;53.996;10.784;2023-04-25T05:45:33;8.80;;;3.70;;
3708;SDS011;1870;53.996;10.784;2023-04-25T05:48:02;15.30;;;4.60;;
3708;SDS011;1870;53.996;10.784;2023-04-25T05:50:28;11.00;;;4.20;;
3708;SDS011;1870;53.996;10.784;2023-04-25T05:52:55;15.20;;;4.23;;
3708;SDS011;1870;53.996;10.784;2023-04-25T05:55:21;8.10;;;4.07;;
3708;SDS011;1870;53.996;10.784;2023-04-25T05:57:47;9.40;;;4.40;;
3708;SDS011;1870;53.996;10.784;2023-04-25T06:00:13;17.63;;;4.73;;
3708;SDS011;1870;53.996;10.784;2023-04-25T06:02:41;14.03;;;4.50;;
3708;SDS011;1870;53.996;10.784;2023-04-25T06:05:07;6.93;;;5.00;;
3708;SDS011;1870;53.996;10.784;2023-04-25T06:07:33;12.03;;;4.33;;
3708;SDS011;1870;53.996;10.784;2023-04-25T06:09:59;18.93;;;4.23;;
3708;SDS011;1870;53.996;10.784;2023-04-25T06:12:26;11.93;;;4.53;;
3708;SDS011;1870;53.996;10.784;2023-04-25T06:14:52;16.43;;;4.00;;
3708;SDS011;1870;53.996;10.784;2023-04-25T06:17:18;11.83;;;5.00;;
3708;SDS011;1870;53.996;10.784;2023-04-25T06:19:44;8.20;;;3.47;;
3708;SDS011;1870;53.996;10.784;2023-04-25T06:22:10;17.70;;;3.87;;
3708;SDS011;1870;53.996;10.784;2023-04-25T06:24:36;13.37;;;3.80;;
3708;SDS011;1870;53.996;10.784;2023-04-25T06:27:02;12.83;;;4.43;;
3708;SDS011;1870;53.996;10.784;2023-04-25T06:29:28;8.43;;;4.53;;
3708;SDS011;1870;53.996;10.784;2023-04-25T06:31:54;11.70;;;4.17;;
3708;SDS011;1870;53.996;10.784;2023-04-25T06:34:20;12.80;;;4.67;;
3708;SDS011;1870;53.996;10.784;2023-04-25T06:36:46;8.63;;;4.20;;
3708;SDS011;1870;53.996;10.784;2023-04-25T06:39:12;10.60;;;4.30;;
3708;SDS011;1870;53.996;10.784;2023-04-25T06:41:38;7.70;;;5.30;;
3708;SDS011;1870;53.996;10.784;2023-04-25T06:44:04;16.10;;;4.33;;
3708;SDS011;1870;53.996;10.784;2023-04-25T06:46:30;12.77;;;4.00;;
3708;SDS011;1870;53.996;10.784;2023-04-25T06:48:57;10.20;;;3.83;;
3708;SDS011;1870;53.996;10.784;2023-04-25T06:51:22;15.60;;;4.60;;
3708;SDS011;1870;53.996;10.784;2023-04-25T06:53:49;8.50;;;4.47;;
3708;SDS011;1870;53.996;10.784;2023-04-25T06:56:15;8.53;;;4.60;;
3708;SDS011;1870;53.996;10.784;2023-04-25T06:58:41;11.07;;;3.60;;
3708;SDS011;1870;53.996;10.784;2023-04-25T07:01:07;13.07;;;3.60;;
3708;SDS011;1870;53.996;10.784;2023-04-25T07:03:34;14.07;;;3.90;;
3708;SDS011;1870;53.996;10.784;2023-04-25T07:06:00;11.90;;;3.90;;
3708;SDS011;1870;53.996;10.784;2023-04-25T07:08:26;18.60;;;3.73;;
3708;SDS011;1870;53.996;10.784;2023-04-25T07:10:52;15.33;;;3.93;;
3708;SDS011;1870;53.996;10.784;2023-04-25T07:13:18;9.37;;;4.10;;
3708;SDS011;1870;53.996;10.784;2023-04-25T07:15:44;12.47;;;3.43;;
3708;SDS011;1870;53.996;10.784;2023-04-25T07:18:12;11.13;;;3.37;;
3708;SDS011;1870;53.996;10.784;2023-04-25T07:20:38;11.37;;;3.80;;
3708;SDS011;1870;53.996;10.784;2023-04-25T07:23:04;10.13;;;4.27;;
3708;SDS011;1870;53.996;10.784;2023-04-25T07:25:30;12.40;;;4.00;;
3708;SDS011;1870;53.996;10.784;2023-04-25T07:27:56;10.00;;;3.83;;
3708;SDS011;1870;53.996;10.784;2023-04-25T07:30:22;9.00;;;4.50;;
3708;SDS011;1870;53.996;10.784;2023-04-25T07:32:49;14.13;;;5.20;;
3708;SDS011;1870;53.996;10.784;2023-04-25T07:35:15;11.83;;;4.47;;
3708;SDS011;1870;53.996;10.784;2023-04-25T07:37:41;17.97;;;5.00;;
3708;SDS011;1870;53.996;10.784;2023-04-25T07:40:08;13.20;;;5.30;;
3708;SDS011;1870;53.996;10.784;2023-04-25T07:42:34;10.97;;;4.47;;
3708;SDS011;1870;53.996;10.784;2023-04-25T07:45:01;16.80;;;4.57;;
3708;SDS011;1870;53.996;10.784;2023-04-25T07:47:28;13.47;;;5.33;;
3708;SDS011;1870;53.996;10.784;2023-04-25T07:49:54;11.00;;;4.57;;
3708;SDS011;1870;53.996;10.784;2023-04-25T07:52:21;15.03;;;5.50;;
3708;SDS011;1870;53.996;10.784;2023-04-25T07:54:47;16.30;;;7.50;;
3708;SDS011;1870;53.996;10.784;2023-04-25T07:57:13;8.20;;;5.83;;
3708;SDS011;1870;53.996;10.784;2023-04-25T07:59:39;13.20;;;6.10;;
3708;SDS011;1870;53.996;10.784;2023-04-25T08:02:05;14.73;;;6.40;;
3708;SDS011;1870;53.996;10.784;2023-04-25T08:04:31;11.70;;;6.10;;
3708;SDS011;1870;53.996;10.784;2023-04-25T08:06:57;10.93;;;5.97;;
3708;SDS011;1870;53.996;10.784;2023-04-25T08:09:23;13.20;;;5.70;;
3708;SDS011;1870;53.996;10.784;2023-04-25T08:11:49;8.37;;;5.00;;
3708;SDS011;1870;53.996;10.784;2023-04-25T08:14:15;11.30;;;5.73;;
3708;SDS011;1870;53.996;10.784;2023-04-25T08:16:41;13.90;;;5.47;;
3708;SDS011;1870;53.996;10.784;2023-04-25T08:19:08;7.30;;;5.27;;
3708;SDS011;1870;53.996;10.784;2023-04-25T08:21:34;12.63;;;5.23;;
3708;SDS011;1870;53.996;10.784;2023-04-25T08:24:00;8.07;;;5.27;;
3708;SDS011;1870;53.996;10.784;2023-04-25T08:26:26;9.57;;;5.70;;
3708;SDS011;1870;53.996;10.784;2023-04-25T08:28:52;13.07;;;6.00;;
3708;SDS011;1870;53.996;10.784;2023-04-25T08:31:18;8.20;;;5.60;;
3708;SDS011;1870;53.996;10.784;2023-04-25T08:33:44;15.27;;;6.03;;
3708;SDS011;1870;53.996;10.784;2023-04-25T08:36:10;14.10;;;5.37;;
3708;SDS011;1870;53.996;10.784;2023-04-25T08:38:36;9.57;;;6.00;;
3708;SDS011;1870;53.996;10.784;2023-04-25T08:41:02;9.37;;;6.20;;
3708;SDS011;1870;53.996;10.784;2023-04-25T08:43:29;9.10;;;5.93;;
3708;SDS011;1870;53.996;10.784;2023-04-25T08:45:58;7.00;;;5.70;;
3708;SDS011;1870;53.996;10.784;2023-04-25T08:48:28;8.60;;;5.67;;
3708;SDS011;1870;53.996;10.784;2023-04-25T08:50:55;11.37;;;5.80;;
3708;SDS011;1870;53.996;10.784;2023-04-25T08:53:22;14.03;;;6.30;;
3708;SDS011;1870;53.996;10.784;2023-04-25T08:55:50;15.20;;;7.30;;
3708;SDS011;1870;53.996;10.784;2023-04-25T08:58:18;9.77;;;6.10;;
3708;SDS011;1870;53.996;10.784;2023-04-25T09:00:45;11.83;;;6.60;;
3708;SDS011;1870;53.996;10.784;2023-04-25T09:03:11;9.30;;;7.83;;
3708;SDS011;1870;53.996;10.784;2023-04-25T09:05:38;10.40;;;6.60;;
3708;SDS011;1870;53.996;10.784;2023-04-25T09:08:05;9.23;;;6.27;;
3708;SDS011;1870;53.996;10.784;2023-04-25T09:10:33;17.43;;;5.90;;
3708;SDS011;1870;53.996;10.784;2023-04-25T09:13:10;12.73;;;5.50;;
3708;SDS011;1870;53.996;10.784;2023-04-25T09:15:51;9.83;;;5.20;;
3708;SDS011;1870;53.996;10.784;2023-04-25T09:18:27;8.50;;;5.53;;
3708;SDS011;1870;53.996;10.784;2023-04-25T09:20:54;10.10;;;5.30;;
3708;SDS011;1870;53.996;10.784;2023-04-25T09:23:21;12.03;;;6.13;;
3708;SDS011;1870;53.996;10.784;2023-04-25T09:25:47;9.60;;;7.20;;
3708;SDS011;1870;53.996;10.784;2023-04-25T09:28:14;9.07;;;5.77;;
3708;SDS011;1870;53.996;10.784;2023-04-25T09:30:40;10.90;;;6.60;;
3708;SDS011;1870;53.996;10.784;2023-04-25T09:33:06;11.73;;;6.57;;
3708;SDS011;1870;53.996;10.784;2023-04-25T09:35:44;8.43;;;5.37;;
3708;SDS011;1870;53.996;10.784;2023-04-25T09:38:14;6.90;;;4.90;;
3708;SDS011;1870;53.996;10.784;2023-04-25T09:40:43;9.33;;;6.50;;
3708;SDS011;1870;53.996;10.784;2023-04-25T09:43:10;5.90;;;4.70;;
3708;SDS011;1870;53.996;10.784;2023-04-25T09:45:43;8.00;;;5.20;;
3708;SDS011;1870;53.996;10.784;2023-04-25T09:48:11;10.83;;;5.00;;
3708;SDS011;1870;53.996;10.784;2023-04-25T09:50:38;8.43;;;5.07;;
3708;SDS011;1870;53.996;10.784;2023-04-25T09:53:05;6.20;;;5.20;;
3708;SDS011;1870;53.996;10.784;2023-04-25T09:55:32;9.40;;;5.47;;
3708;SDS011;1870;53.996;10.784;2023-04-25T09:58:00;11.60;;;6.30;;
3708;SDS011;1870;53.996;10.784;2023-04-25T10:00:28;9.43;;;6.33;;
3708;SDS011;1870;53.996;10.784;2023-04-25T10:02:54;12.53;;;5.80;;
3708;SDS011;1870;53.996;10.784;2023-04-25T10:05:21;11.20;;;5.27;;
3708;SDS011;1870;53.996;10.784;2023-04-25T10:07:47;9.07;;;5.30;;
3708;SDS011;1870;53.996;10.784;2023-04-25T10:10:13;5.07;;;4.50;;
3708;SDS011;1870;53.996;10.784;2023-04-25T10:12:40;8.53;;;5.13;;
3708;SDS011;1870;53.996;10.784;2023-04-25T10:15:08;7.70;;;4.90;;
3708;SDS011;1870;53.996;10.784;2023-04-25T10:17:34;4.07;;;3.67;;
3708;SDS011;1870;53.996;10.784;2023-04-25T10:20:03;10.17;;;4.73;;
3708;SDS011;1870;53.996;10.784;2023-04-25T10:22:37;7.60;;;3.90;;
3708;SDS011;1870;53.996;10.784;2023-04-25T10:25:03;10.00;;;4.67;;
3708;SDS011;1870;53.996;10.784;2023-04-25T10:27:30;7.10;;;3.90;;
3708;SDS011;1870;53.996;10.784;2023-04-25T10:30:00;8.07;;;4.43;;
3708;SDS011;1870;53.996;10.784;2023-04-25T10:32:27;5.27;;;4.43;;
3708;SDS011;1870;53.996;10.784;2023-04-25T10:34:53;8.10;;;4.30;;
3708;SDS011;1870;53.996;10.784;2023-04-25T10:37:19;5.50;;;5.00;;
3708;SDS011;1870;53.996;10.784;2023-04-25T10:39:45;9.57;;;4.90;;
3708;SDS011;1870;53.996;10.784;2023-04-25T10:42:11;7.67;;;4.80;;
3708;SDS011;1870;53.996;10.784;2023-04-25T10:44:38;6.17;;;4.03;;
3708;SDS011;1870;53.996;10.784;2023-04-25T10:47:07;8.87;;;4.70;;
3708;SDS011;1870;53.996;10.784;2023-04-25T10:49:38;5.80;;;4.93;;
3708;SDS011;1870;53.996;10.784;2023-04-25T10:54:49;5.60;;;5.10;;
3708;SDS011;1870;53.996;10.784;2023-04-25T10:57:35;9.17;;;4.93;;
3708;SDS011;1870;53.996;10.784;2023-04-25T11:00:11;7.87;;;4.93;;
3708;SDS011;1870;53.996;10.784;2023-04-25T11:02:40;9.50;;;5.33;;
3708;SDS011;1870;53.996;10.784;2023-04-25T11:05:08;7.63;;;4.97;;
3708;SDS011;1870;53.996;10.784;2023-04-25T11:10:03;8.50;;;5.43;;
3708;SDS011;1870;53.996;10.784;2023-04-25T11:12:33;7.90;;;5.20;;
3708;SDS011;1870;53.996;10.784;2023-04-25T11:15:03;6.10;;;5.50;;
3708;SDS011;1870;53.996;10.784;2023-04-25T11:17:29;7.33;;;5.83;;
3708;SDS011;1870;53.996;10.784;2023-04-25T11:19:55;7.63;;;5.80;;
3708;SDS011;1870;53.996;10.784;2023-04-25T11:22:22;12.27;;;5.37;;
3708;SDS011;1870;53.996;10.784;2023-04-25T11:24:49;8.60;;;5.30;;
3708;SDS011;1870;53.996;10.784;2023-04-25T11:27:15;6.00;;;5.20;;
3708;SDS011;1870;53.996;10.784;2023-04-25T11:29:42;6.57;;;5.00;;
3708;SDS011;1870;53.996;10.784;2023-04-25T11:32:08;8.97;;;4.43;;
3708;SDS011;1870;53.996;10.784;2023-04-25T11:34:34;4.90;;;4.07;;
3708;SDS011;1870;53.996;10.784;2023-04-25T11:37:00;11.00;;;3.77;;
3708;SDS011;1870;53.996;10.784;2023-04-25T11:39:27;5.30;;;3.80;;
3708;SDS011;1870;53.996;10.784;2023-04-25T11:41:53;4.50;;;4.10;;
3708;SDS011;1870;53.996;10.784;2023-04-25T11:44:20;11.50;;;4.30;;
3708;SDS011;1870;53.996;10.784;2023-04-25T11:46:46;10.63;;;4.10;;
3708;SDS011;1870;53.996;10.784;2023-04-25T11:49:13;7.67;;;3.97;;
3708;SDS011;1870;53.996;10.784;2023-04-25T11:51:39;13.43;;;4.43;;
3708;SDS011;1870;53.996;10.784;2023-04-25T11:54:05;15.60;;;4.50;;
3708;SDS011;1870;53.996;10.784;2023-04-25T11:56:31;6.50;;;4.97;;
3708;SDS011;1870;53.996;10.784;2023-04-25T11:58:58;7.40;;;4.77;;
3708;SDS011;1870;53.996;10.784;2023-04-25T12:01:32;5.00;;;4.27;;
3708;SDS011;1870;53.996;10.784;2023-04-25T12:03:58;6.67;;;4.40;;
3708;SDS011;1870;53.996;10.784;2023-04-25T12:06:28;5.37;;;4.60;;
3708;SDS011;1870;53.996;10.784;2023-04-25T12:09:01;4.60;;;4.20;;
3708;SDS011;1870;53.996;10.784;2023-04-25T12:11:29;4.70;;;4.10;;
3708;SDS011;1870;53.996;10.784;2023-04-25T12:13:56;4.67;;;4.27;;
3708;SDS011;1870;53.996;10.784;2023-04-25T12:16:39;5.47;;;4.20;;
3708;SDS011;1870;53.996;10.784;2023-04-25T12:19:06;11.07;;;4.80;;
3708;SDS011;1870;53.996;10.784;2023-04-25T12:21:32;5.87;;;4.70;;
3708;SDS011;1870;53.996;10.784;2023-04-25T12:24:15;4.03;;;3.33;;
3708;SDS011;1870;53.996;10.784;2023-04-25T12:29:21;9.67;;;4.60;;
3708;SDS011;1870;53.996;10.784;2023-04-25T12:31:47;7.67;;;4.33;;
3708;SDS011;1870;53.996;10.784;2023-04-25T12:34:14;6.67;;;4.80;;
3708;SDS011;1870;53.996;10.784;2023-04-25T12:36:40;6.07;;;4.90;;
3708;SDS011;1870;53.996;10.784;2023-04-25T12:39:06;7.17;;;4.97;;
3708;SDS011;1870;53.996;10.784;2023-04-25T12:41:32;9.80;;;5.50;;
3708;SDS011;1870;53.996;10.784;2023-04-25T12:43:59;12.43;;;5.50;;
3708;SDS011;1870;53.996;10.784;2023-04-25T12:46:25;13.87;;;5.47;;
3708;SDS011;1870;53.996;10.784;2023-04-25T12:48:51;6.47;;;5.30;;
3708;SDS011;1870;53.996;10.784;2023-04-25T12:51:17;5.43;;;5.13;;
3708;SDS011;1870;53.996;10.784;2023-04-25T12:53:43;6.93;;;6.30;;
3708;SDS011;1870;53.996;10.784;2023-04-25T12:56:09;6.40;;;5.90;;
3708;SDS011;1870;53.996;10.784;2023-04-25T12:58:36;5.57;;;4.93;;
3708;SDS011;1870;53.996;10.784;2023-04-25T13:01:02;5.63;;;5.23;;
3708;SDS011;1870;53.996;10.784;2023-04-25T13:03:28;5.77;;;5.27;;
3708;SDS011;1870;53.996;10.784;2023-04-25T13:05:54;5.60;;;5.10;;
3708;SDS011;1870;53.996;10.784;2023-04-25T13:08:20;6.10;;;5.50;;
3708;SDS011;1870;53.996;10.784;2023-04-25T13:10:49;8.63;;;5.50;;
3708;SDS011;1870;53.996;10.784;2023-04-25T13:13:15;8.47;;;5.83;;
3708;SDS011;1870;53.996;10.784;2023-04-25T13:15:41;5.17;;;4.70;;
3708;SDS011;1870;53.996;10.784;2023-04-25T13:18:08;5.53;;;5.13;;
3708;SDS011;1870;53.996;10.784;2023-04-25T13:20:34;6.60;;;5.40;;
3708;SDS011;1870;53.996;10.784;2023-04-25T13:23:00;7.40;;;5.23;;
3708;SDS011;1870;53.996;10.784;2023-04-25T13:25:26;5.73;;;5.33;;
3708;SDS011;1870;53.996;10.784;2023-04-25T13:27:55;5.90;;;5.30;;
3708;SDS011;1870;53.996;10.784;2023-04-25T13:30:21;5.07;;;4.57;;
3708;SDS011;1870;53.996;10.784;2023-04-25T13:32:47;4.87;;;4.40;;
3708;SDS011;1870;53.996;10.784;2023-04-25T13:35:14;6.80;;;4.20;;
3708;SDS011;1870;53.996;10.784;2023-04-25T13:37:40;5.77;;;4.30;;
3708;SDS011;1870;53.996;10.784;2023-04-25T13:40:09;5.80;;;3.53;;
3708;SDS011;1870;53.996;10.784;2023-04-25T13:42:36;4.60;;;4.20;;
3708;SDS011;1870;53.996;10.784;2023-04-25T13:45:02;6.77;;;5.50;;
3708;SDS011;1870;53.996;10.784;2023-04-25T13:47:29;5.83;;;4.43;;
3708;SDS011;1870;53.996;10.784;2023-04-25T13:49:55;5.87;;;4.80;;
3708;SDS011;1870;53.996;10.784;2023-04-25T13:52:22;5.70;;;4.50;;
3708;SDS011;1870;53.996;10.784;2023-04-25T13:54:49;5.67;;;5.10;;
3708;SDS011;1870;53.996;10.784;2023-04-25T13:57:15;6.00;;;5.40;;
3708;SDS011;1870;53.996;10.784;2023-04-25T13:59:42;6.87;;;5.70;;
3708;SDS011;1870;53.996;10.784;2023-04-25T14:02:08;7.07;;;6.50;;
3708;SDS011;1870;53.996;10.784;2023-04-25T14:04:34;6.97;;;6.27;;
3708;SDS011;1870;53.996;10.784;2023-04-25T14:07:00;8.57;;;5.87;;
3708;SDS011;1870;53.996;10.784;2023-04-25T14:09:27;6.10;;;5.50;;
3708;SDS011;1870;53.996;10.784;2023-04-25T14:11:53;6.03;;;5.53;;
3708;SDS011;1870;53.996;10.784;2023-04-25T14:14:19;6.13;;;5.10;;
3708;SDS011;1870;53.996;10.784;2023-04-25T14:16:46;8.10;;;4.60;;
3708;SDS011;1870;53.996;10.784;2023-04-25T14:19:16;5.60;;;5.03;;
3708;SDS011;1870;53.996;10.784;2023-04-25T14:21:42;6.90;;;4.50;;
3708;SDS011;1870;53.996;10.784;2023-04-25T14:24:09;8.37;;;5.13;;
3708;SDS011;1870;53.996;10.784;2023-04-25T14:26:36;10.40;;;5.50;;
3708;SDS011;1870;53.996;10.784;2023-04-25T14:29:05;5.60;;;4.70;;
3708;SDS011;1870;53.996;10.784;2023-04-25T14:31:32;12.37;;;6.90;;
3708;SDS011;1870;53.996;10.784;2023-04-25T14:33:58;9.10;;;7.00;;
3708;SDS011;1870;53.996;10.784;2023-04-25T14:36:24;10.50;;;6.57;;
3708;SDS011;1870;53.996;10.784;2023-04-25T14:38:51;9.70;;;5.60;;
3708;SDS011;1870;53.996;10.784;2023-04-25T14:41:17;10.83;;;5.77;;
3708;SDS011;1870;53.996;10.784;2023-04-25T14:43:43;7.20;;;5.43;;
3708;SDS011;1870;53.996;10.784;2023-04-25T14:46:10;5.63;;;5.00;;
3708;SDS011;1870;53.996;10.784;2023-04-25T14:48:36;9.50;;;6.00;;
3708;SDS011;1870;53.996;10.784;2023-04-25T14:51:02;5.37;;;4.97;;
3708;SDS011;1870;53.996;10.784;2023-04-25T14:53:28;8.17;;;6.07;;
3708;SDS011;1870;53.996;10.784;2023-04-25T14:55:54;8.60;;;6.20;;
3708;SDS011;1870;53.996;10.784;2023-04-25T14:58:20;9.33;;;4.93;;
3708;SDS011;1870;53.996;10.784;2023-04-25T15:00:46;7.73;;;5.00;;
3708;SDS011;1870;53.996;10.784;2023-04-25T15:03:12;6.40;;;5.10;;
3708;SDS011;1870;53.996;10.784;2023-04-25T15:05:39;6.90;;;5.53;;
3708;SDS011;1870;53.996;10.784;2023-04-25T15:08:05;5.00;;;4.60;;
3708;SDS011;1870;53.996;10.784;2023-04-25T15:10:31;12.33;;;4.30;;
3708;SDS011;1870;53.996;10.784;2023-04-25T15:12:57;5.77;;;3.40;;
3708;SDS011;1870;53.996;10.784;2023-04-25T15:15:23;2.90;;;2.60;;
3708;SDS011;1870;53.996;10.784;2023-04-25T15:17:50;4.50;;;3.63;;
3708;SDS011;1870;53.996;10.784;2023-04-25T15:20:16;7.43;;;4.20;;
3708;SDS011;1870;53.996;10.784;2023-04-25T15:22:43;6.07;;;3.37;;
3708;SDS011;1870;53.996;10.784;2023-04-25T15:25:14;4.30;;;3.90;;
3708;SDS011;1870;53.996;10.784;2023-04-25T15:27:43;7.53;;;3.90;;
3708;SDS011;1870;53.996;10.784;2023-04-25T15:30:12;7.37;;;4.20;;
3708;SDS011;1870;53.996;10.784;2023-04-25T15:32:40;4.10;;;3.77;;